Time;durP1;ratioP1;P1;durP2;ratioP2;P2;SDS_P1;SDS_P2;PMS_P1;PMS_P2;Temp;Humidity;BMP_temperature;BMP_pressure;BME280_temperature;BME280_humidity;BME280_pressure;Samples;Min_cycle;Max_cycle;Signal;HPM_P1;HPM_P2
2021/03/09 00:01:52;;;;;;;10.73;6.82;;;9.70;73.00;;;;;;4975351;28;20073;-80
2021/03/09 00:04:18;;;;;;;9.10;6.70;;;9.70;73.00;;;;;;4958805;28;20058;-81
2021/03/09 00:06:44;;;;;;;8.48;5.95;;;9.70;73.00;;;;;;4959272;28;20454;-81
2021/03/09 00:09:09;;;;;;;9.02;6.03;;;9.70;73.00;;;;;;4971760;28;20031;-80
2021/03/09 00:11:35;;;;;;;10.23;6.47;;;9.70;73.00;;;;;;4945943;28;20034;-81
2021/03/09 00:14:01;;;;;;;9.02;6.07;;;9.60;73.00;;;;;;4987818;28;20022;-80
2021/03/09 00:16:26;;;;;;;9.00;6.00;;;9.60;73.00;;;;;;4959221;28;20169;-81
2021/03/09 00:18:52;;;;;;;9.00;6.18;;;9.60;73.00;;;;;;4959010;28;20054;-80
2021/03/09 00:21:18;;;;;;;8.70;6.00;;;9.60;73.00;;;;;;4975202;28;20491;-81
2021/03/09 00:23:43;;;;;;;9.10;5.93;;;9.60;73.00;;;;;;4959450;28;20041;-82
2021/03/09 00:26:09;;;;;;;9.85;6.30;;;9.60;73.10;;;;;;4990712;28;20037;-81
2021/03/09 00:28:35;;;;;;;8.98;5.80;;;9.60;73.10;;;;;;4958993;28;20023;-81
2021/03/09 00:31:01;;;;;;;9.02;5.82;;;9.50;73.10;;;;;;4975146;28;20398;-80
2021/03/09 00:33:26;;;;;;;8.80;5.65;;;9.50;73.00;;;;;;4956409;28;20037;-81
2021/03/09 00:35:52;;;;;;;8.45;6.20;;;9.50;73.10;;;;;;4959364;28;20075;-82
2021/03/09 00:38:18;;;;;;;8.45;5.65;;;9.50;73.10;;;;;;4959442;28;20030;-81
2021/03/09 00:40:43;;;;;;;8.18;5.20;;;9.50;73.10;;;;;;4959196;28;20034;-81
2021/03/09 00:43:09;;;;;;;9.10;5.93;;;9.50;73.10;;;;;;4974607;28;20461;-81
2021/03/09 00:45:35;;;;;;;9.00;5.82;;;9.40;73.10;;;;;;4958896;28;20037;-81
2021/03/09 00:48:01;;;;;;;9.20;5.45;;;9.40;73.10;;;;;;4974959;28;20030;-81
2021/03/09 00:50:26;;;;;;;7.78;5.00;;;9.40;73.10;;;;;;4958494;28;20023;-82
2021/03/09 00:52:52;;;;;;;8.43;5.88;;;9.40;73.10;;;;;;4992233;28;20039;-81
2021/03/09 00:55:18;;;;;;;7.97;5.47;;;9.40;73.10;;;;;;4978278;28;20034;-81
2021/03/09 00:57:52;;;;;;;8.35;5.60;;;9.30;73.10;;;;;;4962347;28;20498;-81
2021/03/09 01:00:18;;;;;;;8.55;5.53;;;9.30;73.10;;;;;;4996174;28;20033;-81
2021/03/09 01:02:44;;;;;;;8.82;5.97;;;9.30;73.10;;;;;;4978178;28;20097;-81
2021/03/09 01:05:10;;;;;;;7.97;5.28;;;9.30;73.10;;;;;;4962790;28;20038;-81
2021/03/09 01:07:36;;;;;;;8.00;5.43;;;9.30;73.20;;;;;;4977597;28;20045;-81
2021/03/09 01:10:02;;;;;;;8.02;5.63;;;9.20;73.10;;;;;;4978610;28;20463;-81
2021/03/09 01:12:28;;;;;;;8.82;5.90;;;9.20;73.20;;;;;;4994137;28;20085;-81
2021/03/09 01:14:54;;;;;;;7.72;5.40;;;9.20;73.10;;;;;;4978408;28;20038;-81
2021/03/09 01:17:19;;;;;;;9.25;6.25;;;9.20;73.20;;;;;;4993534;28;20054;-81
2021/03/09 01:19:45;;;;;;;7.50;4.90;;;9.20;73.20;;;;;;4962225;28;20034;-81
2021/03/09 01:22:11;;;;;;;8.52;5.60;;;9.10;73.10;;;;;;4982723;28;20053;-81
2021/03/09 01:24:37;;;;;;;8.07;5.15;;;9.10;73.20;;;;;;4977163;28;20036;-82
2021/03/09 01:27:02;;;;;;;9.02;6.05;;;9.10;73.20;;;;;;4978324;28;20407;-81
2021/03/09 01:29:28;;;;;;;8.20;5.57;;;9.10;73.20;;;;;;4946093;28;20026;-82
2021/03/09 01:31:54;;;;;;;7.13;5.35;;;9.10;73.20;;;;;;4962288;28;20034;-81
2021/03/09 01:34:20;;;;;;;7.95;5.47;;;9.10;73.20;;;;;;4994012;28;20038;-81
2021/03/09 01:36:45;;;;;;;8.18;5.85;;;9.00;73.20;;;;;;4977513;28;20130;-81
2021/03/09 01:39:14;;;;;;;8.60;5.93;;;9.00;73.20;;;;;;4993922;28;20026;-81
2021/03/09 01:41:40;;;;;;;9.23;5.47;;;9.00;73.30;;;;;;4977075;28;20043;-81
2021/03/09 01:44:06;;;;;;;8.32;5.35;;;9.00;73.30;;;;;;4977460;28;20080;-81
2021/03/09 01:46:33;;;;;;;9.27;6.40;;;9.00;73.30;;;;;;4967341;28;20042;-80
2021/03/09 01:48:59;;;;;;;9.13;6.28;;;9.00;73.30;;;;;;4977477;28;20117;-80
2021/03/09 01:51:25;;;;;;;7.93;5.90;;;8.90;73.30;;;;;;4993901;28;20062;-80
2021/03/09 01:53:51;;;;;;;8.65;6.00;;;9.00;73.40;;;;;;4960769;28;20062;-81
2021/03/09 01:56:17;;;;;;;8.85;6.30;;;8.90;73.30;;;;;;4993615;28;20041;-81
2021/03/09 01:58:47;;;;;;;9.30;6.20;;;8.90;73.90;;;;;;4958727;28;20118;-81
2021/03/09 02:01:15;;;;;;;8.57;5.70;;;8.90;73.30;;;;;;4993235;28;20037;-80
2021/03/09 02:03:40;;;;;;;9.73;6.95;;;8.90;73.30;;;;;;4987388;28;20097;-80
2021/03/09 02:06:06;;;;;;;9.82;6.78;;;8.90;73.30;;;;;;4993559;28;20431;-80
2021/03/09 02:08:32;;;;;;;9.90;6.65;;;8.80;73.30;;;;;;4977273;28;20030;-80
2021/03/09 02:10:59;;;;;;;8.90;6.07;;;8.80;73.30;;;;;;4972896;28;20104;-80
2021/03/09 02:14:05;;;;;;;10.07;6.88;;;8.80;73.40;;;;;;4969639;28;20475;-81
2021/03/09 02:16:49;;;;;;;9.50;6.70;;;8.80;73.40;;;;;;4965656;28;20034;-81
2021/03/09 02:19:43;;;;;;;9.77;6.55;;;8.80;73.40;;;;;;4992953;28;20129;-81
2021/03/09 02:22:14;;;;;;;10.57;6.95;;;8.70;73.40;;;;;;4993355;28;20399;-81
2021/03/09 02:25:11;;;;;;;10.50;7.22;;;8.70;73.30;;;;;;4993262;28;20030;-81
2021/03/09 02:28:11;;;;;;;10.38;7.10;;;8.70;73.40;;;;;;4990351;28;20033;-81
2021/03/09 02:30:43;;;;;;;10.45;6.85;;;8.70;73.40;;;;;;4971078;28;20045;-81
2021/03/09 02:33:25;;;;;;;9.48;7.18;;;8.70;73.30;;;;;;4993031;28;20035;-81
2021/03/09 02:36:06;;;;;;;9.43;6.50;;;8.70;73.40;;;;;;4992600;28;20076;-80
2021/03/09 02:38:54;;;;;;;10.23;7.45;;;8.60;73.40;;;;;;4992750;28;20029;-80
2021/03/09 02:41:22;;;;;;;11.60;7.32;;;8.60;73.40;;;;;;4992566;28;20042;-80
2021/03/09 02:43:52;;;;;;;9.93;7.32;;;8.60;73.30;;;;;;4976122;28;20476;-81
2021/03/09 02:46:20;;;;;;;11.57;7.38;;;8.60;73.40;;;;;;4976793;28;20034;-80
2021/03/09 02:48:47;;;;;;;9.50;6.35;;;8.60;73.40;;;;;;4988664;28;20027;-80
2021/03/09 02:51:13;;;;;;;9.98;6.70;;;8.60;73.40;;;;;;4967011;28;20066;-80
2021/03/09 02:53:46;;;;;;;9.50;6.63;;;8.60;73.40;;;;;;4992121;28;20026;-80
2021/03/09 02:56:13;;;;;;;11.15;8.00;;;8.50;73.40;;;;;;4988124;28;20042;-81
2021/03/09 02:58:43;;;;;;;11.02;7.63;;;8.50;73.40;;;;;;5006009;28;20026;-80
2021/03/09 03:01:09;;;;;;;11.80;7.63;;;8.60;73.40;;;;;;4976241;28;20034;-80
2021/03/09 03:03:38;;;;;;;10.65;7.10;;;8.50;73.40;;;;;;4976395;28;20387;-81
2021/03/09 03:06:05;;;;;;;11.80;8.25;;;8.50;73.40;;;;;;4976420;28;20113;-80
2021/03/09 03:08:32;;;;;;;11.25;7.80;;;8.50;73.40;;;;;;4976765;28;20044;-80
2021/03/09 03:10:59;;;;;;;10.70;7.85;;;8.50;73.40;;;;;;4975130;28;20550;-80
2021/03/09 03:13:26;;;;;;;11.25;7.80;;;8.50;73.40;;;;;;4957090;28;20041;-80
2021/03/09 03:15:53;;;;;;;11.75;7.90;;;8.50;73.40;;;;;;4959127;28;20050;-81
2021/03/09 03:18:21;;;;;;;11.98;8.23;;;8.50;73.40;;;;;;4974051;28;20082;-80
2021/03/09 03:20:48;;;;;;;11.10;7.78;;;8.50;73.40;;;;;;4975995;28;20368;-81
2021/03/09 03:23:16;;;;;;;12.32;8.35;;;8.40;73.40;;;;;;4991796;28;20053;-81
2021/03/09 03:25:49;;;;;;;11.43;8.02;;;8.40;73.40;;;;;;4991300;28;20105;-80
2021/03/09 03:28:15;;;;;;;12.00;8.05;;;8.40;74.10;;;;;;4972621;28;20419;-80
2021/03/09 03:30:41;;;;;;;13.10;8.75;;;8.40;73.40;;;;;;4974321;28;20034;-80
2021/03/09 03:33:06;;;;;;;11.38;7.97;;;8.40;73.40;;;;;;4973778;28;20387;-81
2021/03/09 03:35:33;;;;;;;12.30;8.32;;;8.40;73.50;;;;;;4988681;28;20019;-80
2021/03/09 03:38:00;;;;;;;12.20;8.45;;;8.40;73.50;;;;;;4975524;28;20448;-81
2021/03/09 03:40:25;;;;;;;12.75;9.05;;;8.40;73.50;;;;;;4972662;28;20378;-80
2021/03/09 03:42:51;;;;;;;12.43;8.45;;;8.40;73.50;;;;;;4943763;28;20035;-80
2021/03/09 03:45:19;;;;;;;13.00;9.20;;;8.40;73.50;;;;;;4991798;28;20026;-81
2021/03/09 03:47:47;;;;;;;13.15;9.25;;;8.40;73.60;;;;;;4991278;28;20069;-80
2021/03/09 03:50:16;;;;;;;12.43;9.20;;;8.40;73.50;;;;;;4975635;28;20030;-80
2021/03/09 03:52:56;;;;;;;14.13;9.20;;;8.30;73.50;;;;;;4975315;28;20029;-81
2021/03/09 03:56:00;;;;;;;13.05;8.57;;;8.30;73.60;;;;;;4991738;28;20034;-81
2021/03/09 03:59:10;;;;;;;12.63;9.15;;;8.30;73.60;;;;;;4986993;28;20074;-80
2021/03/09 04:01:38;;;;;;;13.07;9.18;;;8.30;73.50;;;;;;4882335;29;20189;-80
2021/03/09 04:04:10;;;;;;;12.65;9.77;;;8.30;73.50;;;;;;4897583;29;20100;-80
2021/03/09 04:06:37;;;;;;;13.65;9.30;;;8.30;73.60;;;;;;4933600;28;20062;-80
2021/03/09 04:09:08;;;;;;;12.82;9.20;;;8.30;73.60;;;;;;4975442;28;20522;-80
2021/03/09 04:11:35;;;;;;;14.65;9.85;;;8.30;73.70;;;;;;4975304;28;20038;-80
2021/03/09 04:14:02;;;;;;;15.02;10.75;;;8.30;73.70;;;;;;4974937;28;20026;-80
2021/03/09 04:16:28;;;;;;;13.88;10.00;;;8.20;73.60;;;;;;4992815;28;20384;-80
2021/03/09 04:18:55;;;;;;;14.30;10.13;;;8.20;74.30;;;;;;4974781;28;20070;-81
2021/03/09 04:21:23;;;;;;;15.43;10.57;;;8.20;73.70;;;;;;4975272;28;20054;-81
2021/03/09 04:23:50;;;;;;;15.35;10.85;;;8.20;73.70;;;;;;4991263;28;20105;-81
2021/03/09 04:26:16;;;;;;;15.43;11.20;;;8.30;73.70;;;;;;4990293;28;20034;-81
2021/03/09 04:28:42;;;;;;;13.93;9.88;;;8.20;73.70;;;;;;4994619;28;20034;-81
2021/03/09 04:31:09;;;;;;;14.82;10.43;;;8.20;73.70;;;;;;4968708;28;20451;-80
2021/03/09 04:33:35;;;;;;;15.13;11.02;;;8.20;73.70;;;;;;4981074;28;20034;-81
2021/03/09 04:36:01;;;;;;;16.25;11.05;;;8.20;73.70;;;;;;4977453;28;20049;-80
2021/03/09 04:38:29;;;;;;;14.50;10.27;;;8.20;73.70;;;;;;4992240;28;20505;-80
2021/03/09 04:40:56;;;;;;;15.55;11.32;;;8.20;73.70;;;;;;4979865;28;20078;-79
2021/03/09 04:43:22;;;;;;;15.20;10.80;;;8.20;73.70;;;;;;4989822;28;20156;-80
2021/03/09 04:45:48;;;;;;;14.25;10.50;;;8.20;73.70;;;;;;4995066;28;20031;-80
2021/03/09 04:48:14;;;;;;;14.25;10.88;;;8.20;73.70;;;;;;4963408;28;20122;-80
2021/03/09 04:50:43;;;;;;;15.85;11.13;;;8.20;73.70;;;;;;4978926;28;20029;-80
2021/03/09 04:53:09;;;;;;;14.63;10.38;;;8.20;73.70;;;;;;4979586;28;20231;-80
2021/03/09 04:55:34;;;;;;;14.80;11.18;;;8.20;73.70;;;;;;4948385;28;20468;-79
2021/03/09 04:58:03;;;;;;;15.55;11.38;;;8.20;73.80;;;;;;4963101;28;20039;-76
2021/03/09 05:00:29;;;;;;;16.15;11.82;;;8.20;73.80;;;;;;4973181;28;20030;-79
2021/03/09 05:02:55;;;;;;;14.63;10.52;;;8.20;73.80;;;;;;4978167;28;20109;-79
2021/03/09 05:05:23;;;;;;;15.65;11.05;;;8.20;73.80;;;;;;4978128;28;20026;-78
2021/03/09 05:07:51;;;;;;;18.38;12.30;;;8.20;73.80;;;;;;4994410;28;20026;-79
2021/03/09 05:10:18;;;;;;;16.38;11.80;;;8.10;73.80;;;;;;4978378;28;20490;-78
2021/03/09 05:12:47;;;;;;;15.93;11.95;;;8.20;73.90;;;;;;4995448;28;20023;-79
2021/03/09 05:15:14;;;;;;;17.52;12.60;;;8.10;73.90;;;;;;4977934;28;20047;-79
2021/03/09 05:17:39;;;;;;;18.08;12.85;;;8.10;73.80;;;;;;4977856;28;20059;-79
2021/03/09 05:20:07;;;;;;;16.50;12.15;;;8.10;73.80;;;;;;4994274;28;20034;-78
2021/03/09 05:22:33;;;;;;;16.40;12.07;;;8.10;73.80;;;;;;4994446;28;20042;-79
2021/03/09 05:24:59;;;;;;;17.48;11.93;;;8.10;73.90;;;;;;4976478;28;20057;-79
2021/03/09 05:27:25;;;;;;;16.77;11.57;;;8.10;73.90;;;;;;4958459;28;20475;-79
2021/03/09 05:29:51;;;;;;;16.17;12.05;;;8.10;73.90;;;;;;4972349;28;20041;-79
2021/03/09 05:32:17;;;;;;;16.88;12.57;;;8.10;73.90;;;;;;4992473;28;20042;-79
2021/03/09 05:34:42;;;;;;;16.33;10.98;;;8.10;73.90;;;;;;4974134;28;20030;-78
2021/03/09 05:37:09;;;;;;;16.05;12.27;;;8.10;73.90;;;;;;4976479;28;20088;-79
2021/03/09 05:39:37;;;;;;;16.85;12.57;;;8.10;73.90;;;;;;4977481;28;20029;-79
2021/03/09 05:42:07;;;;;;;18.00;13.18;;;8.10;73.90;;;;;;4975364;28;20045;-82
2021/03/09 05:44:33;;;;;;;16.83;11.70;;;8.10;74.00;;;;;;4994786;28;20022;-82
2021/03/09 05:47:02;;;;;;;16.05;11.57;;;8.10;73.90;;;;;;4994741;28;20034;-86
2021/03/09 05:49:28;;;;;;;17.85;12.45;;;8.10;73.90;;;;;;4995212;28;20026;-79
2021/03/09 05:51:54;;;;;;;17.38;11.88;;;8.10;73.90;;;;;;4973744;28;20069;-80
2021/03/09 05:54:21;;;;;;;15.77;11.75;;;8.10;73.90;;;;;;4976556;28;20027;-80
2021/03/09 05:56:47;;;;;;;17.77;13.00;;;8.00;73.90;;;;;;4977209;28;20030;-79
2021/03/09 05:59:13;;;;;;;16.52;11.38;;;8.10;74.00;;;;;;4992372;28;20037;-78
2021/03/09 06:01:39;;;;;;;15.18;12.10;;;8.10;74.00;;;;;;4993667;28;20038;-79
2021/03/09 06:04:06;;;;;;;15.80;11.82;;;8.00;73.90;;;;;;4979030;28;20027;-83
2021/03/09 06:06:32;;;;;;;18.10;12.95;;;8.10;74.00;;;;;;4965458;28;20037;-81
2021/03/09 06:08:59;;;;;;;18.00;12.90;;;8.10;74.00;;;;;;4993312;28;20105;-83
2021/03/09 06:11:26;;;;;;;16.08;11.60;;;8.10;74.00;;;;;;4976718;28;20045;-82
2021/03/09 06:13:52;;;;;;;16.13;12.07;;;8.10;74.00;;;;;;4994205;28;20022;-83
2021/03/09 06:16:17;;;;;;;17.60;13.25;;;8.10;74.00;;;;;;4977595;28;20164;-82
2021/03/09 06:18:52;;;;;;;18.88;13.35;;;8.10;74.00;;;;;;4997685;28;20058;-82
2021/03/09 06:21:18;;;;;;;15.18;10.73;;;8.10;74.10;;;;;;4992146;28;20038;-83
2021/03/09 06:23:45;;;;;;;16.40;12.40;;;8.10;74.00;;;;;;4962131;28;20031;-83
2021/03/09 06:26:39;;;;;;;17.10;12.63;;;8.00;74.00;;;;;;4976871;28;20089;-79
2021/03/09 06:29:16;;;;;;;18.10;13.30;;;8.00;74.10;;;;;;4982156;28;20054;-79
2021/03/09 06:31:48;;;;;;;16.98;12.60;;;8.00;74.00;;;;;;4974691;28;20368;-79
2021/03/09 06:34:24;;;;;;;17.50;12.88;;;8.00;74.10;;;;;;4991750;28;20027;-80
2021/03/09 06:37:10;;;;;;;17.27;13.18;;;8.00;74.10;;;;;;4992073;28;20104;-82
2021/03/09 06:39:49;;;;;;;17.60;12.27;;;8.00;74.10;;;;;;4993580;28;20371;-82
2021/03/09 06:42:18;;;;;;;16.92;12.52;;;8.00;74.20;;;;;;4993450;28;20061;-81
2021/03/09 06:44:52;;;;;;;18.40;13.50;;;8.00;74.10;;;;;;4993696;28;20031;-82
2021/03/09 06:47:18;;;;;;;17.63;13.05;;;8.00;74.10;;;;;;4993128;28;20026;-82
2021/03/09 06:49:51;;;;;;;17.77;12.48;;;8.00;74.10;;;;;;4974306;28;20109;-81
2021/03/09 06:52:19;;;;;;;17.58;13.15;;;8.00;74.10;;;;;;4992046;28;20050;-82
2021/03/09 06:54:47;;;;;;;16.00;12.35;;;8.00;74.10;;;;;;4971689;28;20459;-82
2021/03/09 06:57:13;;;;;;;18.42;13.82;;;8.00;74.10;;;;;;4994325;28;20523;-82
2021/03/09 06:59:42;;;;;;;17.35;12.63;;;8.00;74.20;;;;;;4977360;28;20121;-82
2021/03/09 07:02:13;;;;;;;16.27;12.38;;;8.00;74.10;;;;;;4992917;28;20038;-82
2021/03/09 07:04:47;;;;;;;19.13;14.75;;;8.00;74.10;;;;;;4980310;28;20037;-82
2021/03/09 07:07:15;;;;;;;19.13;14.00;;;8.00;74.10;;;;;;4993309;28;20031;-82
2021/03/09 07:09:53;;;;;;;18.80;12.80;;;8.00;74.10;;;;;;4992693;28;20073;-83
2021/03/09 07:12:19;;;;;;;17.33;12.93;;;8.00;74.30;;;;;;4975675;28;20486;-83
2021/03/09 07:14:46;;;;;;;17.27;12.95;;;8.00;74.20;;;;;;4993658;28;20030;-82
2021/03/09 07:17:13;;;;;;;17.88;13.70;;;8.00;74.20;;;;;;4992798;28;20050;-83
2021/03/09 07:19:43;;;;;;;18.02;13.55;;;8.00;74.30;;;;;;4993844;28;20030;-83
2021/03/09 07:22:14;;;;;;;18.48;13.75;;;8.00;74.20;;;;;;4993122;28;20117;-83
2021/03/09 07:25:06;;;;;;;17.40;13.30;;;8.00;74.30;;;;;;4976950;28;20117;-82
2021/03/09 07:27:50;;;;;;;17.70;13.43;;;8.00;74.30;;;;;;4983369;28;20033;-82
2021/03/09 07:30:20;;;;;;;18.50;14.00;;;8.00;74.20;;;;;;4976701;28;20022;-83
2021/03/09 07:32:56;;;;;;;16.63;12.77;;;8.00;74.20;;;;;;4976847;28;20026;-82
2021/03/09 07:35:24;;;;;;;18.20;12.95;;;8.00;74.30;;;;;;4992158;28;20038;-83
2021/03/09 07:37:51;;;;;;;16.90;12.27;;;8.00;74.30;;;;;;4992939;28;20027;-83
2021/03/09 07:40:31;;;;;;;19.17;13.65;;;8.00;74.30;;;;;;4993851;28;20038;-83
2021/03/09 07:42:57;;;;;;;19.88;14.10;;;8.00;74.30;;;;;;4976640;28;20030;-82
2021/03/09 07:45:31;;;;;;;18.30;13.35;;;8.00;74.30;;;;;;4993284;28;20530;-82
2021/03/09 07:48:00;;;;;;;16.65;13.38;;;8.00;74.40;;;;;;4992592;28;20542;-82
2021/03/09 07:50:35;;;;;;;17.88;12.75;;;8.00;74.30;;;;;;4991921;28;20077;-83
2021/03/09 07:53:05;;;;;;;16.63;13.18;;;8.00;74.30;;;;;;4992373;28;20483;-82
2021/03/09 07:55:31;;;;;;;17.20;12.98;;;8.00;74.30;;;;;;4975883;28;20478;-83
2021/03/09 07:58:16;;;;;;;17.10;13.00;;;8.00;74.30;;;;;;4993762;28;20030;-83
2021/03/09 08:00:54;;;;;;;17.60;13.30;;;8.00;74.40;;;;;;4992447;28;20026;-82
2021/03/09 08:03:41;;;;;;;15.15;12.00;;;8.00;74.40;;;;;;4975762;28;20173;-82
2021/03/09 08:06:17;;;;;;;16.52;11.65;;;8.00;74.30;;;;;;4991987;28;20433;-82
2021/03/09 08:08:50;;;;;;;17.58;12.50;;;8.00;74.40;;;;;;4993531;28;20065;-82
2021/03/09 08:11:25;;;;;;;16.83;11.50;;;8.00;74.30;;;;;;4975921;28;20042;-83
2021/03/09 08:14:02;;;;;;;;;;;8.00;74.40;;;;;;4973452;28;20035;-82
2021/03/09 08:16:37;;;;;;;13.75;10.20;;;8.00;74.30;;;;;;4991925;28;19910;-83
2021/03/09 08:19:25;;;;;;;15.60;11.93;;;8.00;74.80;;;;;;4991923;28;20050;-82
2021/03/09 08:21:57;;;;;;;16.27;11.48;;;8.00;74.30;;;;;;4988462;28;20042;-82
2021/03/09 08:24:42;;;;;;;15.18;11.10;;;8.00;74.40;;;;;;4996698;28;20105;-82
2021/03/09 08:27:32;;;;;;;15.35;11.15;;;8.00;74.60;;;;;;4992531;28;20031;-82
2021/03/09 08:30:26;;;;;;;15.43;11.45;;;8.10;74.70;;;;;;4992882;28;20472;-82
2021/03/09 08:32:52;;;;;;;13.75;11.23;;;8.00;74.60;;;;;;4991460;28;20054;-83
2021/03/09 08:35:18;;;;;;;14.07;11.07;;;8.10;74.60;;;;;;4958740;28;20066;-83
2021/03/09 08:37:46;;;;;;;14.10;10.45;;;8.00;74.60;;;;;;4975633;28;20037;-83
2021/03/09 08:40:22;;;;;;;14.20;10.80;;;8.00;74.60;;;;;;4991556;28;20030;-83
2021/03/09 08:43:00;;;;;;;14.48;10.57;;;8.10;74.70;;;;;;4991838;28;20164;-83
2021/03/09 08:46:05;;;;;;;13.98;11.02;;;8.10;74.70;;;;;;4992692;28;20029;-83
2021/03/09 08:48:52;;;;;;;14.02;9.70;;;8.10;74.70;;;;;;4991329;28;20035;-83
2021/03/09 08:51:41;;;;;;;13.43;10.10;;;8.10;74.70;;;;;;4961283;28;20387;-83
2021/03/09 08:54:26;;;;;;;13.35;10.23;;;8.10;74.70;;;;;;4989729;28;20019;-83
2021/03/09 08:56:52;;;;;;;13.30;9.50;;;8.10;74.70;;;;;;4991547;28;20053;-81
2021/03/09 08:59:24;;;;;;;11.95;9.32;;;8.20;74.70;;;;;;4991363;28;20379;-84
2021/03/09 09:01:50;;;;;;;13.07;9.63;;;8.20;74.70;;;;;;4975793;28;20046;-83
2021/03/09 09:04:17;;;;;;;13.00;9.65;;;8.20;74.70;;;;;;4979050;28;20026;-83
2021/03/09 09:06:45;;;;;;;12.38;8.52;;;8.20;74.70;;;;;;4966614;28;20140;-84
2021/03/09 09:09:11;;;;;;;11.80;9.02;;;8.20;74.70;;;;;;4982462;28;20043;-84
2021/03/09 09:11:37;;;;;;;12.65;8.95;;;8.20;74.70;;;;;;4987537;28;20907;-83
2021/03/09 09:14:16;;;;;;;14.38;9.07;;;8.30;74.80;;;;;;4993398;28;20035;-84
2021/03/09 09:16:43;;;;;;;11.23;7.47;;;8.30;74.90;;;;;;4995509;28;20101;-83
2021/03/09 09:19:09;;;;;;;10.88;7.57;;;8.30;74.80;;;;;;4978909;28;20050;-82
2021/03/09 09:21:45;;;;;;;10.52;7.28;;;8.30;74.80;;;;;;4962305;28;20045;-83
2021/03/09 09:24:17;;;;;;;10.02;7.68;;;8.30;75.00;;;;;;4978950;28;20471;-84
2021/03/09 09:26:42;;;;;;;9.75;6.78;;;8.30;74.80;;;;;;4991279;28;20371;-83
2021/03/09 09:29:08;;;;;;;9.30;6.90;;;8.40;74.90;;;;;;4994892;28;20026;-82
2021/03/09 09:31:34;;;;;;;8.50;5.97;;;8.40;74.90;;;;;;4975662;28;20444;-84
2021/03/09 09:34:00;;;;;;;10.27;6.78;;;8.40;74.90;;;;;;4995510;28;20076;-82
2021/03/09 09:36:26;;;;;;;8.95;6.30;;;8.40;74.80;;;;;;4994483;28;20033;-84
2021/03/09 09:38:52;;;;;;;9.70;6.70;;;8.50;74.90;;;;;;4978806;28;20027;-83
2021/03/09 09:41:20;;;;;;;8.32;5.68;;;8.50;75.00;;;;;;4978952;28;20081;-83
2021/03/09 09:43:46;;;;;;;8.25;5.78;;;8.50;74.90;;;;;;4965048;28;20031;-82
2021/03/09 09:46:27;;;;;;;8.48;5.75;;;8.50;74.90;;;;;;4978512;28;20394;-81
2021/03/09 09:48:53;;;;;;;8.43;5.85;;;8.50;75.00;;;;;;4994207;28;20052;-83
2021/03/09 09:51:28;;;;;;;7.60;5.45;;;8.50;74.80;;;;;;4994285;28;20041;-83
2021/03/09 09:53:55;;;;;;;7.78;5.30;;;8.50;74.90;;;;;;4978046;28;20061;-81
2021/03/09 09:56:22;;;;;;;8.07;5.38;;;8.60;74.80;;;;;;4994361;28;20125;-84
2021/03/09 09:58:55;;;;;;;8.52;5.20;;;8.60;74.80;;;;;;4978357;28;20026;-84
2021/03/09 10:01:35;;;;;;;7.10;5.15;;;8.60;74.80;;;;;;4978148;28;20033;-85
2021/03/09 10:04:03;;;;;;;7.55;4.80;;;8.60;74.80;;;;;;4994728;28;20084;-83
2021/03/09 10:06:49;;;;;;;5.72;4.28;;;8.70;74.80;;;;;;4994691;28;20029;-84
2021/03/09 10:09:20;;;;;;;6.13;4.32;;;8.70;74.80;;;;;;4994876;28;20062;-84
2021/03/09 10:11:54;;;;;;;6.13;3.85;;;8.70;74.70;;;;;;4978189;28;20034;-83
2021/03/09 10:14:25;;;;;;;7.55;4.50;;;8.70;74.80;;;;;;4978327;28;20034;-82
2021/03/09 10:16:52;;;;;;;5.60;4.05;;;8.80;74.80;;;;;;4994670;28;20028;-83
2021/03/09 10:19:21;;;;;;;5.60;3.90;;;8.80;74.80;;;;;;4975461;28;20184;-83
2021/03/09 10:21:48;;;;;;;5.40;3.60;;;8.90;74.80;;;;;;4978049;28;20038;-84
2021/03/09 10:24:33;;;;;;;5.53;3.85;;;8.90;74.90;;;;;;4994268;28;20030;-84
2021/03/09 10:26:59;;;;;;;;;;;8.90;74.90;;;;;;5005365;28;20066;-84
2021/03/09 10:29:32;;;;;;;4.38;2.97;;;8.90;74.70;;;;;;4984810;28;19916;-85
2021/03/09 10:32:00;;;;;;;5.70;3.20;;;9.00;74.70;;;;;;4977485;28;20026;-83
2021/03/09 10:34:40;;;;;;;4.55;3.13;;;9.00;74.70;;;;;;4977127;28;20109;-84
2021/03/09 10:37:14;;;;;;;4.15;3.00;;;9.00;74.90;;;;;;4977503;28;20093;-82
2021/03/09 10:39:52;;;;;;;5.20;2.97;;;9.00;74.80;;;;;;4993634;28;20031;-83
2021/03/09 10:42:42;;;;;;;3.97;2.95;;;9.00;74.90;;;;;;4994389;28;20066;-84
2021/03/09 10:45:30;;;;;;;4.15;3.08;;;9.00;74.80;;;;;;4994903;28;20033;-84
2021/03/09 10:47:59;;;;;;;3.47;2.35;;;9.10;74.80;;;;;;4944613;28;20035;-84
2021/03/09 10:50:27;;;;;;;4.53;2.80;;;9.10;74.80;;;;;;4993735;28;20028;-84
2021/03/09 10:52:54;;;;;;;3.45;2.60;;;9.10;74.80;;;;;;4994644;28;20026;-84
2021/03/09 10:55:20;;;;;;;3.38;2.45;;;9.10;74.80;;;;;;4993638;28;20034;-85
2021/03/09 10:57:45;;;;;;;3.70;2.60;;;9.10;74.80;;;;;;4977400;28;20085;-84
2021/03/09 11:00:19;;;;;;;3.75;2.40;;;9.20;74.80;;;;;;4974375;28;20027;-84
2021/03/09 11:02:45;;;;;;;3.10;2.28;;;9.20;74.80;;;;;;4957858;28;20051;-84
2021/03/09 11:05:12;;;;;;;2.72;2.10;;;9.20;74.80;;;;;;5002105;28;20368;-83
2021/03/09 11:07:38;;;;;;;3.15;2.40;;;9.20;74.80;;;;;;4977163;28;20108;-83
2021/03/09 11:10:06;;;;;;;2.20;1.80;;;9.30;74.80;;;;;;4977197;28;20096;-84
2021/03/09 11:12:32;;;;;;;2.72;2.08;;;9.30;74.80;;;;;;4944642;28;20030;-84
2021/03/09 11:14:57;;;;;;;2.65;2.00;;;9.30;74.80;;;;;;4977012;28;20053;-83
2021/03/09 11:17:23;;;;;;;3.00;2.08;;;9.30;74.70;;;;;;4976767;28;20046;-83
2021/03/09 11:19:49;;;;;;;2.40;1.75;;;9.30;74.70;;;;;;4993232;28;20356;-84
2021/03/09 11:22:16;;;;;;;2.72;2.00;;;9.40;74.80;;;;;;4993097;28;20046;-84
2021/03/09 11:24:42;;;;;;;3.22;2.08;;;9.40;74.80;;;;;;4976825;28;20026;-84
2021/03/09 11:27:09;;;;;;;2.55;1.90;;;9.40;74.80;;;;;;4977257;28;20046;-84
2021/03/09 11:29:37;;;;;;;2.17;1.83;;;9.40;74.80;;;;;;4993173;28;20038;-85
2021/03/09 11:32:04;;;;;;;2.95;2.00;;;9.50;74.80;;;;;;4993304;28;20032;-84
2021/03/09 11:34:29;;;;;;;2.47;1.75;;;9.50;74.80;;;;;;4960878;28;20443;-83
2021/03/09 11:36:55;;;;;;;2.13;1.60;;;9.50;74.80;;;;;;4959863;28;20129;-84
2021/03/09 11:39:21;;;;;;;1.70;1.52;;;9.50;74.80;;;;;;4993119;28;20038;-83
2021/03/09 11:41:51;;;;;;;2.10;1.80;;;9.50;74.70;;;;;;4960089;28;20546;-84
2021/03/09 11:44:18;;;;;;;1.65;1.52;;;9.60;74.80;;;;;;4993686;28;20030;-83
2021/03/09 11:46:44;;;;;;;1.92;1.38;;;9.60;74.80;;;;;;4976216;28;20475;-83
2021/03/09 11:49:10;;;;;;;3.13;2.20;;;9.60;74.70;;;;;;4960261;28;20034;-84
2021/03/09 11:51:36;;;;;;;3.92;1.90;;;9.60;74.70;;;;;;4976151;28;20442;-84
2021/03/09 11:54:01;;;;;;;2.08;1.80;;;9.70;74.80;;;;;;4992508;28;20026;-84
2021/03/09 11:56:27;;;;;;;1.55;1.40;;;9.70;74.80;;;;;;4976578;28;20026;-85
2021/03/09 11:58:53;;;;;;;1.88;1.60;;;9.70;74.70;;;;;;4992513;28;20030;-84
2021/03/09 12:01:20;;;;;;;1.40;1.30;;;9.70;74.70;;;;;;4960730;28;20026;-85
2021/03/09 12:03:46;;;;;;;2.47;1.48;;;9.80;74.70;;;;;;4976268;28;20027;-84
2021/03/09 12:06:13;;;;;;;1.75;1.63;;;9.80;74.60;;;;;;4957006;28;20061;-84
2021/03/09 12:08:39;;;;;;;1.73;1.48;;;9.80;74.60;;;;;;4984980;28;20479;-84
2021/03/09 12:11:05;;;;;;;1.98;1.50;;;9.80;74.60;;;;;;4972856;28;20109;-83
2021/03/09 12:13:31;;;;;;;1.55;1.45;;;9.80;74.50;;;;;;4950430;28;20042;-84
2021/03/09 12:15:57;;;;;;;1.48;1.38;;;9.80;74.50;;;;;;4975946;28;20042;-84
2021/03/09 12:18:23;;;;;;;1.38;1.27;;;9.90;74.60;;;;;;4975522;28;20062;-83
2021/03/09 12:20:48;;;;;;;1.58;1.40;;;9.90;74.50;;;;;;4972819;28;20516;-83
2021/03/09 12:23:14;;;;;;;1.73;1.20;;;9.90;74.50;;;;;;4991959;28;20043;-84
2021/03/09 12:25:40;;;;;;;1.67;1.30;;;9.90;74.40;;;;;;4991481;28;20081;-83
2021/03/09 12:28:06;;;;;;;1.48;1.38;;;9.90;74.40;;;;;;4991981;28;20458;-84
2021/03/09 12:30:32;;;;;;;1.30;1.20;;;9.90;74.40;;;;;;4975613;28;20034;-84
2021/03/09 12:32:58;;;;;;;1.30;1.20;;;9.90;74.40;;;;;;4992083;28;20859;-84
2021/03/09 12:35:24;;;;;;;1.15;1.00;;;10.00;74.40;;;;;;4975869;28;20026;-83
2021/03/09 12:37:50;;;;;;;1.45;1.30;;;10.00;74.40;;;;;;4992310;28;20076;-83
2021/03/09 12:40:16;;;;;;;1.20;1.10;;;10.00;74.40;;;;;;4974618;28;20030;-84
2021/03/09 12:42:42;;;;;;;1.40;1.30;;;10.00;74.40;;;;;;4992016;28;20534;-84
2021/03/09 12:45:09;;;;;;;1.38;1.27;;;10.00;74.40;;;;;;4975966;28;20038;-83
2021/03/09 12:47:35;;;;;;;1.15;1.10;;;10.00;74.40;;;;;;4978466;28;20110;-83
2021/03/09 12:50:01;;;;;;;1.10;1.10;;;10.00;74.30;;;;;;4978039;28;20125;-83
2021/03/09 12:52:27;;;;;;;1.25;1.13;;;10.10;74.40;;;;;;4995589;28;20116;-82
2021/03/09 12:54:52;;;;;;;1.15;1.05;;;10.10;75.00;;;;;;4979406;28;20479;-83
2021/03/09 12:57:18;;;;;;;1.27;1.02;;;10.10;74.30;;;;;;4979387;28;20023;-83
2021/03/09 12:59:44;;;;;;;1.83;1.30;;;10.10;74.30;;;;;;4979285;28;20034;-84
2021/03/09 13:02:10;;;;;;;1.00;1.00;;;10.10;74.30;;;;;;4962791;28;20038;-84